Jefferson, South Carolina
Current Conditions -  °F | °C
As of 11:15 AM on Thursday 29 Jan 2015 (Local Time) from KHVS Reporting Station
Clear Clear  
Wind Chill: 46°   Ceiling: Unl
Heat Index: 48°   Visibility: 10mi
Dew Point: 30°   Wind: 5mph
Humidity: 50%   Direction: 220°SW
Pressure: 30.35"   Gusts: NA
Location:  34.65°N, 80.39°W
Report Text: KHVS 291615Z AUTO 22004KT 10SM CLR 09/M01 A3035 RMK AO2
Loading
Personal Weather Stations






























Interactive Weather Map New forecast layout! Learn more

10-Day Weather Forecast

Advertisements
Track Severe Weather on mobile